Strona główna
METAR-TAF:

METAR-TAF

Lotnisko :

Harriman-and-West Airport

North Adams, Massachusetts, Stany Zjednoczone

Szerokość geograficzna: 42-41-50N, Długość geograficzna: 073-10-13W, wysokość: 199 m

Aktualna obserwacja pogody

Raport powstał 37 minut temu, godzina 09:52 UTC
Wiatr 8 kt od zachód
Temperatura 2°C
Wilgotność 75%
Ciśnienie 1020 hPa
Widzialność: 16.1 km
Rozproszone chmury na wysokości 2900 ft
Zachmurzenie całkowite na wysokości 6000 ft

METAR: KAQW 220952Z AUTO 26008KT 10SM SCT029 OVC060 02/M02 A3013 RMK AO2 SLP207 T00221022

czas: 06:29 (10:29 UTC)


TAF: brakujący

Obserwacja i prognoza pogody dla ponad 4000 lotnisk (raport METAR i TAF).

Dostępne stacje oznaczono żółtymi i czerwonymi punktami na mapie.

Najedź kursorem aby zobaczyć nazwę stacji.

Kliknij aby zobaczyć obserwacje i prognozy pogody.

Aby zmienić mapę: kliknij na zielony przycisk z czarnym krzyżykiem, aby powiększyć; na zielony przycisk z myślnikiem, aby pomniejszyć; na zielone strzałki, aby przejść do map sąsiednich.


METAR-TAF: